sensor_id;sensor_type;location;lat;lon;timestamp;P1;durP1;ratioP1;P2;durP2;ratioP2
30010;SDS011;16851;53.564;8.112;2023-04-25T00:02:28;30.93;;;5.27;;
30010;SDS011;16851;53.564;8.112;2023-04-25T00:07:30;27.43;;;5.67;;
30010;SDS011;16851;53.564;8.112;2023-04-25T00:12:33;24.97;;;4.67;;
30010;SDS011;16851;53.564;8.112;2023-04-25T00:17:35;18.73;;;4.10;;
30010;SDS011;16851;53.564;8.112;2023-04-25T00:22:39;24.23;;;4.90;;
30010;SDS011;16851;53.564;8.112;2023-04-25T00:27:41;28.60;;;5.13;;
30010;SDS011;16851;53.564;8.112;2023-04-25T00:32:43;18.57;;;4.50;;
30010;SDS011;16851;53.564;8.112;2023-04-25T00:37:47;21.27;;;4.80;;
30010;SDS011;16851;53.564;8.112;2023-04-25T00:42:56;21.37;;;4.30;;
30010;SDS011;16851;53.564;8.112;2023-04-25T00:48:02;19.57;;;3.77;;
30010;SDS011;16851;53.564;8.112;2023-04-25T00:53:08;31.67;;;4.53;;
30010;SDS011;16851;53.564;8.112;2023-04-25T00:58:13;25.90;;;4.50;;
30010;SDS011;16851;53.564;8.112;2023-04-25T01:03:15;22.87;;;4.43;;
30010;SDS011;16851;53.564;8.112;2023-04-25T01:08:18;21.00;;;4.53;;
30010;SDS011;16851;53.564;8.112;2023-04-25T01:13:23;22.70;;;4.73;;
30010;SDS011;16851;53.564;8.112;2023-04-25T01:18:25;20.83;;;4.03;;
30010;SDS011;16851;53.564;8.112;2023-04-25T01:23:29;18.50;;;3.70;;
30010;SDS011;16851;53.564;8.112;2023-04-25T01:28:32;25.03;;;5.50;;
30010;SDS011;16851;53.564;8.112;2023-04-25T01:33:35;19.37;;;4.10;;
30010;SDS011;16851;53.564;8.112;2023-04-25T01:38:36;21.67;;;4.90;;
30010;SDS011;16851;53.564;8.112;2023-04-25T01:43:44;22.10;;;4.20;;
30010;SDS011;16851;53.564;8.112;2023-04-25T01:48:46;25.07;;;4.17;;
30010;SDS011;16851;53.564;8.112;2023-04-25T01:53:51;27.97;;;4.70;;
30010;SDS011;16851;53.564;8.112;2023-04-25T01:59:00;18.80;;;4.10;;
30010;SDS011;16851;53.564;8.112;2023-04-25T02:04:33;25.33;;;4.50;;
30010;SDS011;16851;53.564;8.112;2023-04-25T02:09:40;24.07;;;4.43;;
30010;SDS011;16851;53.564;8.112;2023-04-25T02:14:45;24.70;;;3.80;;
30010;SDS011;16851;53.564;8.112;2023-04-25T02:19:58;23.63;;;4.10;;
30010;SDS011;16851;53.564;8.112;2023-04-25T02:25:02;16.90;;;3.83;;
30010;SDS011;16851;53.564;8.112;2023-04-25T02:30:06;28.07;;;4.77;;
30010;SDS011;16851;53.564;8.112;2023-04-25T02:35:13;28.20;;;4.00;;
30010;SDS011;16851;53.564;8.112;2023-04-25T02:40:17;15.80;;;3.57;;
30010;SDS011;16851;53.564;8.112;2023-04-25T02:45:24;26.73;;;3.80;;
30010;SDS011;16851;53.564;8.112;2023-04-25T02:50:27;22.17;;;4.10;;
30010;SDS011;16851;53.564;8.112;2023-04-25T02:55:29;25.10;;;4.17;;
30010;SDS011;16851;53.564;8.112;2023-04-25T03:00:33;18.97;;;3.47;;
30010;SDS011;16851;53.564;8.112;2023-04-25T03:05:37;13.17;;;3.43;;
30010;SDS011;16851;53.564;8.112;2023-04-25T03:10:42;18.23;;;3.50;;
30010;SDS011;16851;53.564;8.112;2023-04-25T03:15:44;19.37;;;4.13;;
30010;SDS011;16851;53.564;8.112;2023-04-25T03:20:49;20.83;;;3.37;;
30010;SDS011;16851;53.564;8.112;2023-04-25T03:25:51;18.50;;;3.90;;
30010;SDS011;16851;53.564;8.112;2023-04-25T03:30:52;22.87;;;4.17;;
30010;SDS011;16851;53.564;8.112;2023-04-25T03:36:00;24.33;;;4.40;;
30010;SDS011;16851;53.564;8.112;2023-04-25T03:41:04;18.13;;;3.97;;
30010;SDS011;16851;53.564;8.112;2023-04-25T03:46:15;30.37;;;4.10;;
30010;SDS011;16851;53.564;8.112;2023-04-25T03:51:21;19.17;;;3.37;;
30010;SDS011;16851;53.564;8.112;2023-04-25T03:56:22;17.57;;;3.10;;
30010;SDS011;16851;53.564;8.112;2023-04-25T04:01:32;15.93;;;4.17;;
30010;SDS011;16851;53.564;8.112;2023-04-25T04:06:34;24.50;;;4.13;;
30010;SDS011;16851;53.564;8.112;2023-04-25T04:11:43;19.63;;;3.57;;
30010;SDS011;16851;53.564;8.112;2023-04-25T04:16:47;22.47;;;4.37;;
30010;SDS011;16851;53.564;8.112;2023-04-25T04:21:49;23.83;;;3.70;;
30010;SDS011;16851;53.564;8.112;2023-04-25T04:26:51;13.80;;;3.30;;
30010;SDS011;16851;53.564;8.112;2023-04-25T04:32:10;17.60;;;3.30;;
30010;SDS011;16851;53.564;8.112;2023-04-25T04:37:12;15.50;;;3.37;;
30010;SDS011;16851;53.564;8.112;2023-04-25T04:42:15;16.80;;;3.30;;
30010;SDS011;16851;53.564;8.112;2023-04-25T04:47:28;26.07;;;3.70;;
30010;SDS011;16851;53.564;8.112;2023-04-25T04:52:47;15.03;;;4.07;;
30010;SDS011;16851;53.564;8.112;2023-04-25T04:58:10;17.67;;;3.23;;
30010;SDS011;16851;53.564;8.112;2023-04-25T05:03:37;12.97;;;2.47;;
30010;SDS011;16851;53.564;8.112;2023-04-25T05:08:58;7.57;;;2.30;;
30010;SDS011;16851;53.564;8.112;2023-04-25T05:14:14;14.77;;;2.40;;
30010;SDS011;16851;53.564;8.112;2023-04-25T05:19:34;13.87;;;2.33;;
30010;SDS011;16851;53.564;8.112;2023-04-25T05:24:54;16.47;;;3.03;;
30010;SDS011;16851;53.564;8.112;2023-04-25T05:30:22;15.77;;;3.13;;
30010;SDS011;16851;53.564;8.112;2023-04-25T05:35:53;18.67;;;3.20;;
30010;SDS011;16851;53.564;8.112;2023-04-25T05:41:00;22.87;;;3.47;;
30010;SDS011;16851;53.564;8.112;2023-04-25T05:46:17;15.73;;;2.60;;
30010;SDS011;16851;53.564;8.112;2023-04-25T05:51:29;13.03;;;3.17;;
30010;SDS011;16851;53.564;8.112;2023-04-25T05:56:44;16.27;;;2.60;;
30010;SDS011;16851;53.564;8.112;2023-04-25T06:01:48;11.67;;;2.53;;
30010;SDS011;16851;53.564;8.112;2023-04-25T06:06:50;14.93;;;2.60;;
30010;SDS011;16851;53.564;8.112;2023-04-25T06:11:52;19.50;;;3.53;;
30010;SDS011;16851;53.564;8.112;2023-04-25T06:16:54;15.77;;;2.87;;
30010;SDS011;16851;53.564;8.112;2023-04-25T06:21:58;20.03;;;2.97;;
30010;SDS011;16851;53.564;8.112;2023-04-25T06:27:00;19.17;;;2.90;;
30010;SDS011;16851;53.564;8.112;2023-04-25T06:32:06;13.40;;;2.60;;
30010;SDS011;16851;53.564;8.112;2023-04-25T06:37:09;13.90;;;2.63;;
30010;SDS011;16851;53.564;8.112;2023-04-25T06:42:11;16.43;;;2.60;;
30010;SDS011;16851;53.564;8.112;2023-04-25T06:47:23;13.77;;;2.57;;
30010;SDS011;16851;53.564;8.112;2023-04-25T06:52:25;11.43;;;2.40;;
30010;SDS011;16851;53.564;8.112;2023-04-25T06:57:28;11.37;;;2.23;;
30010;SDS011;16851;53.564;8.112;2023-04-25T07:02:37;10.33;;;2.17;;
30010;SDS011;16851;53.564;8.112;2023-04-25T07:07:39;7.17;;;1.80;;
30010;SDS011;16851;53.564;8.112;2023-04-25T07:12:41;9.67;;;2.00;;
30010;SDS011;16851;53.564;8.112;2023-04-25T07:17:43;10.93;;;1.97;;
30010;SDS011;16851;53.564;8.112;2023-04-25T07:22:45;11.45;;;2.20;;
30010;SDS011;16851;53.564;8.112;2023-04-25T07:27:50;11.53;;;2.53;;
30010;SDS011;16851;53.564;8.112;2023-04-25T07:32:53;14.37;;;2.30;;
30010;SDS011;16851;53.564;8.112;2023-04-25T07:37:55;10.77;;;2.57;;
30010;SDS011;16851;53.564;8.112;2023-04-25T07:42:58;11.80;;;2.90;;
30010;SDS011;16851;53.564;8.112;2023-04-25T07:48:07;12.30;;;2.60;;
30010;SDS011;16851;53.564;8.112;2023-04-25T07:53:12;13.13;;;2.77;;
30010;SDS011;16851;53.564;8.112;2023-04-25T07:58:25;12.90;;;2.33;;
30010;SDS011;16851;53.564;8.112;2023-04-25T08:03:31;14.87;;;2.57;;
30010;SDS011;16851;53.564;8.112;2023-04-25T08:08:35;10.77;;;2.33;;
30010;SDS011;16851;53.564;8.112;2023-04-25T08:13:46;7.17;;;1.70;;
30010;SDS011;16851;53.564;8.112;2023-04-25T08:18:52;16.07;;;2.73;;
30010;SDS011;16851;53.564;8.112;2023-04-25T08:23:54;20.50;;;3.20;;
30010;SDS011;16851;53.564;8.112;2023-04-25T08:29:06;16.77;;;2.60;;
30010;SDS011;16851;53.564;8.112;2023-04-25T08:34:12;14.93;;;2.57;;
30010;SDS011;16851;53.564;8.112;2023-04-25T08:39:25;12.83;;;2.73;;
30010;SDS011;16851;53.564;8.112;2023-04-25T08:45:02;11.10;;;2.00;;
30010;SDS011;16851;53.564;8.112;2023-04-25T08:50:11;9.03;;;2.00;;
30010;SDS011;16851;53.564;8.112;2023-04-25T08:55:13;12.63;;;1.90;;
30010;SDS011;16851;53.564;8.112;2023-04-25T09:00:19;9.77;;;1.80;;
30010;SDS011;16851;53.564;8.112;2023-04-25T09:05:21;9.37;;;1.93;;
30010;SDS011;16851;53.564;8.112;2023-04-25T09:10:27;12.33;;;2.73;;
30010;SDS011;16851;53.564;8.112;2023-04-25T09:15:32;13.43;;;2.40;;
30010;SDS011;16851;53.564;8.112;2023-04-25T09:20:47;15.87;;;2.67;;
30010;SDS011;16851;53.564;8.112;2023-04-25T09:26:06;12.33;;;2.63;;
30010;SDS011;16851;53.564;8.112;2023-04-25T09:31:20;12.68;;;2.20;;
30010;SDS011;16851;53.564;8.112;2023-04-25T09:36:25;22.97;;;2.93;;
30010;SDS011;16851;53.564;8.112;2023-04-25T09:41:48;17.90;;;3.00;;
30010;SDS011;16851;53.564;8.112;2023-04-25T09:46:55;8.87;;;1.90;;
30010;SDS011;16851;53.564;8.112;2023-04-25T09:52:03;6.93;;;1.30;;
30010;SDS011;16851;53.564;8.112;2023-04-25T09:57:15;7.23;;;1.50;;
30010;SDS011;16851;53.564;8.112;2023-04-25T10:02:25;5.18;;;1.25;;
30010;SDS011;16851;53.564;8.112;2023-04-25T10:07:33;9.87;;;2.30;;
30010;SDS011;16851;53.564;8.112;2023-04-25T10:12:35;9.57;;;2.00;;
30010;SDS011;16851;53.564;8.112;2023-04-25T10:17:41;6.97;;;1.60;;
30010;SDS011;16851;53.564;8.112;2023-04-25T10:22:44;11.20;;;2.37;;
30010;SDS011;16851;53.564;8.112;2023-04-25T10:27:50;11.83;;;2.37;;
30010;SDS011;16851;53.564;8.112;2023-04-25T10:32:54;10.32;;;2.22;;
30010;SDS011;16851;53.564;8.112;2023-04-25T10:38:11;16.10;;;2.75;;
30010;SDS011;16851;53.564;8.112;2023-04-25T10:48:33;7.10;;;2.10;;
30010;SDS011;16851;53.564;8.112;2023-04-25T10:53:38;12.93;;;1.65;;
30010;SDS011;16851;53.564;8.112;2023-04-25T10:58:43;7.55;;;1.70;;
30010;SDS011;16851;53.564;8.112;2023-04-25T11:03:48;12.63;;;1.83;;
30010;SDS011;16851;53.564;8.112;2023-04-25T11:08:52;5.45;;;1.60;;
30010;SDS011;16851;53.564;8.112;2023-04-25T11:13:56;14.75;;;2.13;;
30010;SDS011;16851;53.564;8.112;2023-04-25T11:18:58;8.88;;;1.90;;
30010;SDS011;16851;53.564;8.112;2023-04-25T11:24:00;11.98;;;2.60;;
30010;SDS011;16851;53.564;8.112;2023-04-25T11:29:02;10.25;;;2.63;;
30010;SDS011;16851;53.564;8.112;2023-04-25T11:34:07;20.10;;;2.08;;
30010;SDS011;16851;53.564;8.112;2023-04-25T11:39:09;8.45;;;2.03;;
30010;SDS011;16851;53.564;8.112;2023-04-25T11:44:16;12.93;;;2.30;;
30010;SDS011;16851;53.564;8.112;2023-04-25T11:49:21;8.32;;;1.90;;
30010;SDS011;16851;53.564;8.112;2023-04-25T11:54:26;9.48;;;2.00;;
30010;SDS011;16851;53.564;8.112;2023-04-25T11:59:33;9.77;;;2.10;;
30010;SDS011;16851;53.564;8.112;2023-04-25T12:04:37;9.90;;;1.80;;
30010;SDS011;16851;53.564;8.112;2023-04-25T12:09:42;9.15;;;2.10;;
30010;SDS011;16851;53.564;8.112;2023-04-25T12:14:46;5.88;;;1.65;;
30010;SDS011;16851;53.564;8.112;2023-04-25T12:19:51;11.32;;;2.22;;
30010;SDS011;16851;53.564;8.112;2023-04-25T12:24:55;5.13;;;1.85;;
30010;SDS011;16851;53.564;8.112;2023-04-25T12:30:02;9.02;;;1.83;;
30010;SDS011;16851;53.564;8.112;2023-04-25T12:35:08;11.00;;;2.30;;
30010;SDS011;16851;53.564;8.112;2023-04-25T12:40:12;13.48;;;2.10;;
30010;SDS011;16851;53.564;8.112;2023-04-25T12:45:16;9.10;;;1.85;;
30010;SDS011;16851;53.564;8.112;2023-04-25T12:50:18;8.73;;;1.95;;
30010;SDS011;16851;53.564;8.112;2023-04-25T12:55:20;11.90;;;1.95;;
30010;SDS011;16851;53.564;8.112;2023-04-25T13:00:26;11.20;;;2.10;;
30010;SDS011;16851;53.564;8.112;2023-04-25T13:05:31;8.40;;;2.05;;
30010;SDS011;16851;53.564;8.112;2023-04-25T13:10:32;9.98;;;1.80;;
30010;SDS011;16851;53.564;8.112;2023-04-25T13:15:40;8.85;;;2.40;;
30010;SDS011;16851;53.564;8.112;2023-04-25T13:20:44;11.07;;;2.08;;
30010;SDS011;16851;53.564;8.112;2023-04-25T13:25:48;10.60;;;2.20;;
30010;SDS011;16851;53.564;8.112;2023-04-25T13:30:52;13.05;;;2.70;;
30010;SDS011;16851;53.564;8.112;2023-04-25T13:36:00;10.02;;;1.92;;
30010;SDS011;16851;53.564;8.112;2023-04-25T13:41:02;7.00;;;1.70;;
30010;SDS011;16851;53.564;8.112;2023-04-25T13:46:08;8.77;;;1.70;;
30010;SDS011;16851;53.564;8.112;2023-04-25T13:51:25;13.07;;;2.05;;
30010;SDS011;16851;53.564;8.112;2023-04-25T13:56:30;9.30;;;1.67;;
30010;SDS011;16851;53.564;8.112;2023-04-25T14:01:34;12.07;;;2.60;;
30010;SDS011;16851;53.564;8.112;2023-04-25T14:06:39;6.82;;;2.05;;
30010;SDS011;16851;53.564;8.112;2023-04-25T14:11:41;9.80;;;1.85;;
30010;SDS011;16851;53.564;8.112;2023-04-25T14:16:46;5.40;;;1.48;;
30010;SDS011;16851;53.564;8.112;2023-04-25T14:21:55;5.18;;;1.27;;
30010;SDS011;16851;53.564;8.112;2023-04-25T14:26:59;7.68;;;1.83;;
30010;SDS011;16851;53.564;8.112;2023-04-25T14:32:03;10.38;;;2.00;;
30010;SDS011;16851;53.564;8.112;2023-04-25T14:37:06;6.07;;;1.60;;
30010;SDS011;16851;53.564;8.112;2023-04-25T14:42:10;6.15;;;1.70;;
30010;SDS011;16851;53.564;8.112;2023-04-25T14:47:12;6.40;;;1.55;;
30010;SDS011;16851;53.564;8.112;2023-04-25T14:52:17;10.38;;;1.63;;
30010;SDS011;16851;53.564;8.112;2023-04-25T14:57:21;10.18;;;1.67;;
30010;SDS011;16851;53.564;8.112;2023-04-25T15:02:23;7.18;;;1.67;;
30010;SDS011;16851;53.564;8.112;2023-04-25T15:07:27;7.80;;;2.03;;
30010;SDS011;16851;53.564;8.112;2023-04-25T15:12:34;7.72;;;1.60;;
30010;SDS011;16851;53.564;8.112;2023-04-25T15:17:35;8.68;;;1.92;;
30010;SDS011;16851;53.564;8.112;2023-04-25T15:22:41;6.68;;;1.30;;
30010;SDS011;16851;53.564;8.112;2023-04-25T15:27:43;11.70;;;1.98;;
30010;SDS011;16851;53.564;8.112;2023-04-25T15:32:52;8.10;;;1.75;;
30010;SDS011;16851;53.564;8.112;2023-04-25T15:37:54;4.25;;;1.15;;
30010;SDS011;16851;53.564;8.112;2023-04-25T15:42:56;4.93;;;1.45;;
30010;SDS011;16851;53.564;8.112;2023-04-25T15:47:58;7.07;;;1.67;;
30010;SDS011;16851;53.564;8.112;2023-04-25T15:52:59;9.63;;;1.27;;
30010;SDS011;16851;53.564;8.112;2023-04-25T15:58:07;11.25;;;1.98;;
30010;SDS011;16851;53.564;8.112;2023-04-25T16:03:12;9.60;;;1.95;;
30010;SDS011;16851;53.564;8.112;2023-04-25T16:08:19;9.68;;;1.45;;
30010;SDS011;16851;53.564;8.112;2023-04-25T16:13:21;12.07;;;2.20;;
30010;SDS011;16851;53.564;8.112;2023-04-25T16:18:23;5.82;;;1.33;;
30010;SDS011;16851;53.564;8.112;2023-04-25T16:23:25;8.13;;;1.50;;
30010;SDS011;16851;53.564;8.112;2023-04-25T16:28:27;9.82;;;1.90;;
30010;SDS011;16851;53.564;8.112;2023-04-25T16:33:29;9.68;;;1.92;;
30010;SDS011;16851;53.564;8.112;2023-04-25T16:38:31;9.75;;;2.15;;
30010;SDS011;16851;53.564;8.112;2023-04-25T16:43:35;10.75;;;2.40;;
30010;SDS011;16851;53.564;8.112;2023-04-25T16:48:42;9.15;;;1.83;;
30010;SDS011;16851;53.564;8.112;2023-04-25T16:53:44;7.05;;;1.65;;
30010;SDS011;16851;53.564;8.112;2023-04-25T16:58:47;7.72;;;1.73;;
30010;SDS011;16851;53.564;8.112;2023-04-25T17:03:50;6.75;;;1.55;;
30010;SDS011;16851;53.564;8.112;2023-04-25T17:08:52;7.35;;;1.50;;
30010;SDS011;16851;53.564;8.112;2023-04-25T17:13:58;10.43;;;1.92;;
30010;SDS011;16851;53.564;8.112;2023-04-25T17:18:59;12.05;;;2.30;;
30010;SDS011;16851;53.564;8.112;2023-04-25T17:24:01;7.18;;;2.13;;
30010;SDS011;16851;53.564;8.112;2023-04-25T17:29:06;10.23;;;2.80;;
30010;SDS011;16851;53.564;8.112;2023-04-25T17:34:08;10.43;;;2.10;;
30010;SDS011;16851;53.564;8.112;2023-04-25T17:39:10;8.32;;;1.98;;
30010;SDS011;16851;53.564;8.112;2023-04-25T17:44:18;14.23;;;2.83;;
30010;SDS011;16851;53.564;8.112;2023-04-25T17:49:21;12.70;;;2.93;;
30010;SDS011;16851;53.564;8.112;2023-04-25T17:54:25;11.37;;;2.30;;
30010;SDS011;16851;53.564;8.112;2023-04-25T17:59:30;8.67;;;2.40;;
30010;SDS011;16851;53.564;8.112;2023-04-25T18:04:31;8.47;;;2.33;;
30010;SDS011;16851;53.564;8.112;2023-04-25T18:09:33;10.03;;;1.90;;
30010;SDS011;16851;53.564;8.112;2023-04-25T18:14:35;10.53;;;2.30;;
30010;SDS011;16851;53.564;8.112;2023-04-25T18:19:37;14.63;;;2.77;;
30010;SDS011;16851;53.564;8.112;2023-04-25T18:24:43;15.13;;;3.30;;
30010;SDS011;16851;53.564;8.112;2023-04-25T18:29:46;11.53;;;2.63;;
30010;SDS011;16851;53.564;8.112;2023-04-25T18:34:48;15.03;;;3.23;;
30010;SDS011;16851;53.564;8.112;2023-04-25T18:39:51;18.10;;;3.20;;
30010;SDS011;16851;53.564;8.112;2023-04-25T18:44:52;14.60;;;2.70;;
30010;SDS011;16851;53.564;8.112;2023-04-25T18:49:54;19.33;;;3.17;;
30010;SDS011;16851;53.564;8.112;2023-04-25T18:54:56;20.67;;;3.50;;
30010;SDS011;16851;53.564;8.112;2023-04-25T19:00:03;21.33;;;4.03;;
30010;SDS011;16851;53.564;8.112;2023-04-25T19:05:06;17.60;;;4.13;;
30010;SDS011;16851;53.564;8.112;2023-04-25T19:10:09;14.50;;;3.33;;
30010;SDS011;16851;53.564;8.112;2023-04-25T19:15:11;14.30;;;3.47;;
30010;SDS011;16851;53.564;8.112;2023-04-25T19:20:15;17.23;;;3.30;;
30010;SDS011;16851;53.564;8.112;2023-04-25T19:25:17;17.80;;;3.20;;
30010;SDS011;16851;53.564;8.112;2023-04-25T19:30:19;17.40;;;3.60;;
30010;SDS011;16851;53.564;8.112;2023-04-25T19:35:21;12.73;;;3.90;;
30010;SDS011;16851;53.564;8.112;2023-04-25T19:40:25;15.23;;;3.87;;
30010;SDS011;16851;53.564;8.112;2023-04-25T19:45:29;12.57;;;3.67;;
30010;SDS011;16851;53.564;8.112;2023-04-25T19:50:35;13.30;;;3.33;;
30010;SDS011;16851;53.564;8.112;2023-04-25T19:55:40;11.80;;;2.90;;
30010;SDS011;16851;53.564;8.112;2023-04-25T20:00:42;14.93;;;3.83;;
30010;SDS011;16851;53.564;8.112;2023-04-25T20:05:49;12.20;;;3.73;;
30010;SDS011;16851;53.564;8.112;2023-04-25T20:10:51;14.43;;;3.88;;
30010;SDS011;16851;53.564;8.112;2023-04-25T20:15:52;12.87;;;2.90;;
30010;SDS011;16851;53.564;8.112;2023-04-25T20:20:54;11.27;;;3.17;;
30010;SDS011;16851;53.564;8.112;2023-04-25T20:25:59;13.17;;;3.17;;
30010;SDS011;16851;53.564;8.112;2023-04-25T20:31:00;15.13;;;3.50;;
30010;SDS011;16851;53.564;8.112;2023-04-25T20:36:08;17.63;;;3.03;;
30010;SDS011;16851;53.564;8.112;2023-04-25T20:41:12;14.90;;;2.77;;
30010;SDS011;16851;53.564;8.112;2023-04-25T20:46:14;12.37;;;3.07;;
30010;SDS011;16851;53.564;8.112;2023-04-25T20:51:18;12.97;;;2.97;;
30010;SDS011;16851;53.564;8.112;2023-04-25T20:56:23;11.53;;;3.20;;
30010;SDS011;16851;53.564;8.112;2023-04-25T21:01:25;15.00;;;3.55;;
30010;SDS011;16851;53.564;8.112;2023-04-25T21:06:32;11.80;;;2.87;;
30010;SDS011;16851;53.564;8.112;2023-04-25T21:11:39;11.80;;;3.20;;
30010;SDS011;16851;53.564;8.112;2023-04-25T21:16:43;10.83;;;2.50;;
30010;SDS011;16851;53.564;8.112;2023-04-25T21:21:46;12.43;;;3.13;;
30010;SDS011;16851;53.564;8.112;2023-04-25T21:26:50;11.73;;;2.60;;
30010;SDS011;16851;53.564;8.112;2023-04-25T21:31:52;13.07;;;3.03;;
30010;SDS011;16851;53.564;8.112;2023-04-25T21:36:56;10.83;;;2.10;;
30010;SDS011;16851;53.564;8.112;2023-04-25T21:41:58;15.30;;;2.93;;
30010;SDS011;16851;53.564;8.112;2023-04-25T21:47:03;12.30;;;2.47;;
30010;SDS011;16851;53.564;8.112;2023-04-25T21:52:07;11.10;;;2.60;;
30010;SDS011;16851;53.564;8.112;2023-04-25T21:57:11;11.97;;;2.63;;
30010;SDS011;16851;53.564;8.112;2023-04-25T22:02:15;12.33;;;3.07;;
30010;SDS011;16851;53.564;8.112;2023-04-25T22:07:20;12.40;;;2.87;;
30010;SDS011;16851;53.564;8.112;2023-04-25T22:12:21;12.57;;;2.77;;
30010;SDS011;16851;53.564;8.112;2023-04-25T22:17:26;11.17;;;3.03;;
30010;SDS011;16851;53.564;8.112;2023-04-25T22:22:34;14.67;;;3.37;;
30010;SDS011;16851;53.564;8.112;2023-04-25T22:27:38;16.87;;;3.00;;
30010;SDS011;16851;53.564;8.112;2023-04-25T22:32:44;15.50;;;3.23;;
30010;SDS011;16851;53.564;8.112;2023-04-25T22:37:48;8.33;;;2.50;;
30010;SDS011;16851;53.564;8.112;2023-04-25T22:42:49;11.23;;;3.03;;
30010;SDS011;16851;53.564;8.112;2023-04-25T22:47:54;11.93;;;2.60;;
30010;SDS011;16851;53.564;8.112;2023-04-25T22:52:58;12.63;;;2.67;;
30010;SDS011;16851;53.564;8.112;2023-04-25T22:58:01;12.33;;;3.03;;
30010;SDS011;16851;53.564;8.112;2023-04-25T23:03:08;8.60;;;3.10;;
30010;SDS011;16851;53.564;8.112;2023-04-25T23:08:14;16.87;;;2.90;;
30010;SDS011;16851;53.564;8.112;2023-04-25T23:13:19;15.17;;;2.80;;
30010;SDS011;16851;53.564;8.112;2023-04-25T23:18:23;13.77;;;2.90;;
30010;SDS011;16851;53.564;8.112;2023-04-25T23:23:28;11.70;;;2.60;;
30010;SDS011;16851;53.564;8.112;2023-04-25T23:28:36;14.67;;;2.83;;
30010;SDS011;16851;53.564;8.112;2023-04-25T23:33:42;7.73;;;2.10;;
30010;SDS011;16851;53.564;8.112;2023-04-25T23:38:44;10.67;;;2.40;;
30010;SDS011;16851;53.564;8.112;2023-04-25T23:43:48;6.83;;;2.20;;
30010;SDS011;16851;53.564;8.112;2023-04-25T23:48:52;8.27;;;2.23;;
30010;SDS011;16851;53.564;8.112;2023-04-25T23:53:57;6.27;;;1.80;;
30010;SDS011;16851;53.564;8.112;2023-04-25T23:58:59;8.63;;;2.03;;
